Accueil
METAR-TAF:

METAR-TAF

Aéroports :

Caracas, Venezuela

Aéroport international Maiquetía - Simón Bolívar

latitude: 10-36N, longitude: 066-59W, altitude: 43 m

Observation

Le bulletin a été fait il y a 25 minutes, à 10:00 UTC
Vent calme
Température 23°C
Humidité 78%
Pression 1013 hPa
Visibilité 10 km ou plus

METAR: SVMI 241000Z 00000KT 9999 FEW16 23/19 Q1013

Heure: 06:25 (10:25 UTC)

Prévision

Le bulletin a été fait il y a 6 heures et 25 minutes, à 04:00 UTC
Prévision valable du 24 à 06 UTC au 25 à 06 UTC
Vent 10 kt de est
Visibilité 10 km ou plus
Quelques nuages à une hauteur de 1600 ft
Evoluant progressivement
du 24 à 06 UTC au 24 à 10 UTC
Vent 5 kt de est/nord-est

TAF: SVMI 240400Z 2406/2506 09010KT 9999 FEW016 TX32/19Z TN24/09Z BECMG 2406/2410 07005KT

Observations et prévisions météorologiques de plus de 4000 aéroports (messages METAR et TAF).

Les stations disponibles sont représentées par des disques jaunes et rouges sur la carte.

Passer la souris dessus pour voir le nom de la station.

Cliquer dessus pour voir les observations et prévisions météorologiques.

Pour changer de carte: cliquez sur les boutons verts avec une croix noire pour zoomer, sur le bouton vert avec un tiret pour effectuer un zoom arrière, ou sur les flèches vertes pour les cartes adjacentes.


METAR-TAF: